createdAt,value
2023-02-08T00:00:21.179Z,34.50
2023-02-08T00:01:21.167Z,33.60
2023-02-08T00:02:21.237Z,32.20
2023-02-08T00:03:21.146Z,31.50
2023-02-08T00:04:21.137Z,32.70
2023-02-08T00:05:21.127Z,32.30
2023-02-08T00:06:21.129Z,33.90
2023-02-08T00:07:21.104Z,34.40
2023-02-08T00:08:21.100Z,33.50
2023-02-08T00:09:21.090Z,34.50
2023-02-08T00:10:21.125Z,36.20
2023-02-08T00:11:21.076Z,36.60
2023-02-08T00:12:21.087Z,34.90
2023-02-08T00:13:21.042Z,35.10
2023-02-08T00:14:21.032Z,36.10
2023-02-08T00:15:21.069Z,33.80
2023-02-08T00:16:21.093Z,33.70
2023-02-08T00:17:21.003Z,34.00
2023-02-08T00:18:20.990Z,34.30
2023-02-08T00:19:20.981Z,33.20
2023-02-08T00:20:20.973Z,33.30
2023-02-08T00:21:20.989Z,31.60
2023-02-08T00:22:20.949Z,32.50
2023-02-08T00:23:20.953Z,31.20
2023-02-08T00:24:20.925Z,30.30
2023-02-08T00:25:20.916Z,31.40
2023-02-08T00:26:20.913Z,30.40
2023-02-08T00:27:20.892Z,29.60
2023-02-08T00:28:20.986Z,30.50
2023-02-08T00:29:20.869Z,29.80
2023-02-08T00:30:20.867Z,30.60
2023-02-08T00:31:20.977Z,31.30
2023-02-08T00:32:20.838Z,30.90
2023-02-08T00:33:20.834Z,33.50
2023-02-08T00:34:20.824Z,32.50
2023-02-08T00:35:20.807Z,33.50
2023-02-08T00:36:20.799Z,31.60
2023-02-08T00:37:20.781Z,32.10
2023-02-08T00:38:20.774Z,30.60
2023-02-08T00:39:20.759Z,29.80
2023-02-08T00:40:20.754Z,30.60
2023-02-08T00:41:20.745Z,29.60
2023-02-08T00:42:20.733Z,31.30
2023-02-08T00:43:20.717Z,30.70
2023-02-08T00:44:20.731Z,31.90
2023-02-08T00:45:20.694Z,33.30
2023-02-08T00:46:20.752Z,32.10
2023-02-08T00:47:20.677Z,31.70
2023-02-08T00:48:20.664Z,30.10
2023-02-08T00:49:20.665Z,29.70
2023-02-08T00:50:20.644Z,30.70
2023-02-08T00:51:20.642Z,31.60
2023-02-08T00:52:20.621Z,31.30
2023-02-08T00:53:20.607Z,30.00
2023-02-08T00:54:20.601Z,30.10
2023-02-08T00:55:20.597Z,28.10
2023-02-08T00:56:20.609Z,29.10
2023-02-08T00:57:20.569Z,28.70
2023-02-08T00:58:20.557Z,30.30
2023-02-08T00:59:20.544Z,30.20
2023-02-08T01:00:20.565Z,30.50
2023-02-08T01:01:20.519Z,31.90
2023-02-08T01:02:20.515Z,31.90
2023-02-08T01:03:20.503Z,31.20
2023-02-08T01:04:20.495Z,31.40
2023-02-08T01:05:20.480Z,30.40
2023-02-08T01:06:20.474Z,30.10
2023-02-08T01:07:20.462Z,28.20
2023-02-08T01:08:20.475Z,29.60
2023-02-08T01:09:20.443Z,30.10
2023-02-08T01:10:20.430Z,29.70
2023-02-08T01:11:20.417Z,29.00
2023-02-08T01:12:20.414Z,29.60
2023-02-08T01:13:20.400Z,30.90
2023-02-08T01:14:20.387Z,29.30
2023-02-08T01:15:20.377Z,28.50
2023-02-08T01:16:20.531Z,27.70
2023-02-08T01:17:20.353Z,27.10
2023-02-08T01:18:20.343Z,29.00
2023-02-08T01:19:20.334Z,28.10
2023-02-08T01:20:20.329Z,29.20
2023-02-08T01:21:20.311Z,30.20
2023-02-08T01:22:20.298Z,30.60
2023-02-08T01:23:20.287Z,31.80
2023-02-08T01:24:20.294Z,31.00
2023-02-08T01:25:20.267Z,29.60
2023-02-08T01:26:20.276Z,30.30
2023-02-08T01:27:20.246Z,30.50
2023-02-08T01:28:20.276Z,29.80
2023-02-08T01:29:20.224Z,29.40
2023-02-08T01:30:20.252Z,30.10
2023-02-08T01:31:20.369Z,28.90
2023-02-08T01:32:20.270Z,29.80
2023-02-08T01:33:20.187Z,27.50
2023-02-08T01:34:20.173Z,28.30
2023-02-08T01:35:20.160Z,29.60
2023-02-08T01:36:20.148Z,31.00
2023-02-08T01:37:20.142Z,31.40
2023-02-08T01:38:20.129Z,30.50
2023-02-08T01:39:20.115Z,30.60
2023-02-08T01:40:20.107Z,31.00
2023-02-08T01:41:20.105Z,30.50
2023-02-08T01:42:20.091Z,31.90
2023-02-08T01:43:20.073Z,31.70
2023-02-08T01:44:20.064Z,30.50
2023-02-08T01:45:20.052Z,32.60
2023-02-08T01:46:20.042Z,30.00
2023-02-08T01:47:20.123Z,30.90
2023-02-08T01:48:20.047Z,30.90
2023-02-08T01:49:20.007Z,31.20
2023-02-08T01:50:20.151Z,32.00
2023-02-08T01:51:19.992Z,29.00
2023-02-08T01:52:20.104Z,30.60
2023-02-08T01:53:19.966Z,30.60
2023-02-08T01:54:19.958Z,31.90
2023-02-08T01:55:19.946Z,31.50
2023-02-08T01:56:19.936Z,32.00
2023-02-08T01:57:19.922Z,31.70
2023-02-08T01:58:19.925Z,30.70
2023-02-08T01:59:19.900Z,29.80
2023-02-08T02:00:19.894Z,29.80
2023-02-08T02:01:19.913Z,30.40
2023-02-08T02:02:19.874Z,30.20
2023-02-08T02:03:19.858Z,30.00
2023-02-08T02:04:19.949Z,30.90
2023-02-08T02:05:19.837Z,30.30
2023-02-08T02:06:19.834Z,30.70
2023-02-08T02:07:19.814Z,30.40
2023-02-08T02:08:19.812Z,30.30
2023-02-08T02:09:19.797Z,31.10
2023-02-08T02:10:19.794Z,28.30
2023-02-08T02:11:19.778Z,27.50
2023-02-08T02:12:19.764Z,27.70
2023-02-08T02:13:19.752Z,30.10
2023-02-08T02:14:19.744Z,28.70
2023-02-08T02:15:19.740Z,28.90
2023-02-08T02:16:19.763Z,31.10
2023-02-08T02:17:19.725Z,30.70
2023-02-08T02:18:19.901Z,31.10
2023-02-08T02:19:19.687Z,33.10
2023-02-08T02:20:19.706Z,33.40
2023-02-08T02:21:19.675Z,32.60
2023-02-08T02:22:19.690Z,32.90
2023-02-08T02:23:19.646Z,33.80
2023-02-08T02:24:19.646Z,33.10
2023-02-08T02:25:19.626Z,31.00
2023-02-08T02:26:19.614Z,30.10
2023-02-08T02:27:19.601Z,31.20
2023-02-08T02:28:19.650Z,31.60
2023-02-08T02:29:19.581Z,29.70
2023-02-08T02:30:19.573Z,31.40
2023-02-08T02:31:19.578Z,31.50
2023-02-08T02:32:19.550Z,32.10
2023-02-08T02:33:19.551Z,31.00
2023-02-08T02:34:19.528Z,31.40
2023-02-08T02:35:19.516Z,29.80
2023-02-08T02:36:19.529Z,30.20
2023-02-08T02:37:19.494Z,29.40
2023-02-08T02:38:19.491Z,30.50
2023-02-08T02:39:19.471Z,29.30
2023-02-08T02:40:19.468Z,30.30
2023-02-08T02:41:19.451Z,30.60
2023-02-08T02:42:19.442Z,29.30
2023-02-08T02:43:19.442Z,30.70
2023-02-08T02:44:19.425Z,29.60
2023-02-08T02:45:19.415Z,30.30
2023-02-08T02:46:19.401Z,31.70
2023-02-08T02:47:19.392Z,31.20
2023-02-08T02:48:19.402Z,30.40
2023-02-08T02:49:19.376Z,30.00
2023-02-08T02:50:19.371Z,30.20
2023-02-08T02:51:19.352Z,30.00
2023-02-08T02:52:19.363Z,27.90
2023-02-08T02:53:19.329Z,27.40
2023-02-08T02:54:19.328Z,27.20
2023-02-08T02:55:19.330Z,27.60
2023-02-08T02:56:19.307Z,26.80
2023-02-08T02:57:19.290Z,27.10
2023-02-08T02:58:19.276Z,27.70
2023-02-08T02:59:19.278Z,26.80
2023-02-08T03:00:19.259Z,26.80
2023-02-08T03:01:19.242Z,27.60
2023-02-08T03:02:19.247Z,29.10
2023-02-08T03:03:19.224Z,28.60
2023-02-08T03:04:19.230Z,27.60
2023-02-08T03:05:19.213Z,28.90
2023-02-08T03:06:19.194Z,28.90
2023-02-08T03:07:19.187Z,29.50
2023-02-08T03:08:19.196Z,30.30
2023-02-08T03:09:19.164Z,29.70
2023-02-08T03:10:19.166Z,30.60
2023-02-08T03:11:19.140Z,29.70
2023-02-08T03:12:19.131Z,29.50
2023-02-08T03:13:19.120Z,28.80
2023-02-08T03:14:19.110Z,27.10
2023-02-08T03:15:19.094Z,27.10
2023-02-08T03:16:19.160Z,27.00
2023-02-08T03:17:19.093Z,26.50
2023-02-08T03:18:19.070Z,27.10
2023-02-08T03:19:19.061Z,27.10
2023-02-08T03:20:19.046Z,25.40
2023-02-08T03:21:19.041Z,28.60
2023-02-08T03:22:19.028Z,28.40
2023-02-08T03:23:19.016Z,26.80
2023-02-08T03:24:19.030Z,28.60
2023-02-08T03:25:19.033Z,27.30
2023-02-08T03:26:18.983Z,29.00
2023-02-08T03:27:18.975Z,28.00
2023-02-08T03:28:19.004Z,28.00
2023-02-08T03:29:18.953Z,27.50
2023-02-08T03:30:18.943Z,27.40
2023-02-08T03:31:19.133Z,26.40
2023-02-08T03:32:18.943Z,25.60
2023-02-08T03:33:18.914Z,25.60
2023-02-08T03:34:18.899Z,26.80
2023-02-08T03:35:18.890Z,26.80
2023-02-08T03:36:18.880Z,26.60
2023-02-08T03:37:18.866Z,26.50
2023-02-08T03:38:18.855Z,25.40
2023-02-08T03:39:18.856Z,25.00
2023-02-08T03:40:18.857Z,24.60
2023-02-08T03:41:18.828Z,24.40
2023-02-08T03:42:18.821Z,24.30
2023-02-08T03:43:18.810Z,24.00
2023-02-08T03:44:18.801Z,23.90
2023-02-08T03:45:18.780Z,25.80
2023-02-08T03:46:18.851Z,24.30
2023-02-08T03:47:18.763Z,25.50
2023-02-08T03:48:18.754Z,24.90
2023-02-08T03:49:18.736Z,24.00
2023-02-08T03:50:18.725Z,25.10
2023-02-08T03:51:18.715Z,24.00
2023-02-08T03:52:18.703Z,24.00
2023-02-08T03:53:18.696Z,24.70
2023-02-08T03:54:18.685Z,23.40
2023-02-08T03:55:18.677Z,25.20
2023-02-08T03:56:18.688Z,25.90
2023-02-08T03:57:18.664Z,25.60
2023-02-08T03:58:18.637Z,26.70
2023-02-08T03:59:18.627Z,26.30
2023-02-08T04:00:18.618Z,26.70
2023-02-08T04:01:18.643Z,26.70
2023-02-08T04:02:18.637Z,25.80
2023-02-08T04:03:18.585Z,24.00
2023-02-08T04:04:18.573Z,23.80
2023-02-08T04:05:18.564Z,23.40
2023-02-08T04:06:18.583Z,24.20
2023-02-08T04:07:18.541Z,24.90
2023-02-08T04:08:18.542Z,25.20
2023-02-08T04:09:18.524Z,24.00
2023-02-08T04:10:18.505Z,23.80
2023-02-08T04:11:18.503Z,25.10
2023-02-08T04:12:18.508Z,23.70
2023-02-08T04:13:18.481Z,24.10
2023-02-08T04:14:18.464Z,24.50
2023-02-08T04:15:18.461Z,23.30
2023-02-08T04:16:18.464Z,24.30
2023-02-08T04:17:18.435Z,22.70
2023-02-08T04:18:18.432Z,23.50
2023-02-08T04:19:18.412Z,24.30
2023-02-08T04:20:18.404Z,23.80
2023-02-08T04:21:18.391Z,24.60
2023-02-08T04:22:18.381Z,24.00
2023-02-08T04:23:18.371Z,23.60
2023-02-08T04:24:18.362Z,23.90
2023-02-08T04:25:18.349Z,23.30
2023-02-08T04:26:18.336Z,23.90
2023-02-08T04:27:18.330Z,24.40
2023-02-08T04:28:18.401Z,25.30
2023-02-08T04:29:18.307Z,25.40
2023-02-08T04:30:18.298Z,25.50
2023-02-08T04:31:18.401Z,25.60
2023-02-08T04:32:18.278Z,25.20
2023-02-08T04:33:18.288Z,24.70
2023-02-08T04:34:18.256Z,24.00
2023-02-08T04:35:18.244Z,24.00
2023-02-08T04:36:18.233Z,24.90
2023-02-08T04:37:18.231Z,23.30
2023-02-08T04:38:18.216Z,23.40
2023-02-08T04:39:18.202Z,22.10
2023-02-08T04:40:18.197Z,23.20
2023-02-08T04:41:18.183Z,23.90
2023-02-08T04:42:18.173Z,23.80
2023-02-08T04:43:18.159Z,23.30
2023-02-08T04:44:18.179Z,24.00
2023-02-08T04:45:18.143Z,24.60
2023-02-08T04:46:18.144Z,25.00
2023-02-08T04:47:18.121Z,26.00
2023-02-08T04:48:18.106Z,24.90
2023-02-08T04:49:18.100Z,22.80
2023-02-08T04:50:18.086Z,24.80
2023-02-08T04:51:18.080Z,22.60
2023-02-08T04:52:18.064Z,24.30
2023-02-08T04:53:18.066Z,24.10
2023-02-08T04:54:18.042Z,23.70
2023-02-08T04:55:18.038Z,24.30
2023-02-08T04:56:18.028Z,24.60
2023-02-08T04:57:18.013Z,26.30
2023-02-08T04:58:18.003Z,25.90
2023-02-08T04:59:17.997Z,25.40
2023-02-08T05:00:18.000Z,24.10
2023-02-08T05:01:18.062Z,25.10
2023-02-08T05:02:17.961Z,26.70
2023-02-08T05:03:17.950Z,24.30
2023-02-08T05:04:17.939Z,25.40
2023-02-08T05:05:17.979Z,24.70
2023-02-08T05:06:17.930Z,24.20
2023-02-08T05:07:17.906Z,23.80
2023-02-08T05:08:17.894Z,24.40
2023-02-08T05:09:17.884Z,24.80
2023-02-08T05:10:17.879Z,24.90
2023-02-08T05:11:17.859Z,24.30
2023-02-08T05:12:17.852Z,22.50
2023-02-08T05:13:17.839Z,23.10
2023-02-08T05:14:17.825Z,25.40
2023-02-08T05:15:17.824Z,23.70
2023-02-08T05:16:17.837Z,24.70
2023-02-08T05:17:17.795Z,26.40
2023-02-08T05:18:17.784Z,26.30
2023-02-08T05:19:17.776Z,26.70
2023-02-08T05:20:17.759Z,26.40
2023-02-08T05:21:17.755Z,23.90
2023-02-08T05:22:17.743Z,23.20
2023-02-08T05:23:17.734Z,23.80
2023-02-08T05:24:17.718Z,25.10
2023-02-08T05:25:17.706Z,23.50
2023-02-08T05:26:17.698Z,24.70
2023-02-08T05:27:17.689Z,25.00
2023-02-08T05:28:17.756Z,25.80
2023-02-08T05:29:17.673Z,24.90
2023-02-08T05:30:17.656Z,24.40
2023-02-08T05:31:17.734Z,24.90
2023-02-08T05:32:17.661Z,23.50
2023-02-08T05:33:17.636Z,22.70
2023-02-08T05:34:17.618Z,22.40
2023-02-08T05:35:17.609Z,22.40
2023-02-08T05:36:17.588Z,22.30
2023-02-08T05:37:17.642Z,23.40
2023-02-08T05:38:17.569Z,23.60
2023-02-08T05:39:17.554Z,23.90
2023-02-08T05:40:17.547Z,23.80
2023-02-08T05:41:17.563Z,24.10
2023-02-08T05:42:17.619Z,25.90
2023-02-08T05:43:17.619Z,24.30
2023-02-08T05:44:17.603Z,25.80
2023-02-08T05:45:17.690Z,25.30
2023-02-08T05:46:17.707Z,27.00
2023-02-08T05:47:17.619Z,25.80
2023-02-08T05:48:17.527Z,27.10
2023-02-08T05:49:17.452Z,27.20
2023-02-08T05:50:17.450Z,27.30
2023-02-08T05:51:17.430Z,26.00
2023-02-08T05:52:17.431Z,26.00
2023-02-08T05:53:17.414Z,25.30
2023-02-08T05:54:17.396Z,26.90
2023-02-08T05:55:17.392Z,32.80
2023-02-08T05:56:17.375Z,28.40
2023-02-08T05:57:17.366Z,26.80
2023-02-08T05:58:17.350Z,28.20
2023-02-08T05:59:17.344Z,27.20
2023-02-08T06:00:17.338Z,28.60
2023-02-08T06:01:17.324Z,27.30
2023-02-08T06:02:17.311Z,28.10
2023-02-08T06:03:17.372Z,28.00
2023-02-08T06:04:17.504Z,26.80
2023-02-08T06:05:17.279Z,27.30
2023-02-08T06:06:17.266Z,26.90
2023-02-08T06:07:17.257Z,27.80
2023-02-08T06:08:17.248Z,28.30
2023-02-08T06:09:17.236Z,27.60
2023-02-08T06:10:17.226Z,27.20
2023-02-08T06:11:17.215Z,27.10
2023-02-08T06:12:17.204Z,25.60
2023-02-08T06:13:17.208Z,25.40
2023-02-08T06:14:17.180Z,26.50
2023-02-08T06:15:17.178Z,26.10
2023-02-08T06:16:19.795Z,27.00
2023-02-08T06:17:17.150Z,27.30
2023-02-08T06:18:17.139Z,26.00
2023-02-08T06:19:17.127Z,27.50
2023-02-08T06:20:17.143Z,26.70
2023-02-08T06:21:17.118Z,26.30
2023-02-08T06:22:17.098Z,24.80
2023-02-08T06:23:17.086Z,25.60
2023-02-08T06:24:17.073Z,26.20
2023-02-08T06:25:17.070Z,26.80
2023-02-08T06:26:17.051Z,27.40
2023-02-08T06:27:17.042Z,27.40
2023-02-08T06:28:17.110Z,27.40
2023-02-08T06:29:17.030Z,26.80
2023-02-08T06:30:17.013Z,27.10
2023-02-08T06:31:17.029Z,27.50
2023-02-08T06:32:17.018Z,27.10
2023-02-08T06:33:16.989Z,27.00
2023-02-08T06:34:16.972Z,28.40
2023-02-08T06:35:16.970Z,27.90
2023-02-08T06:36:16.969Z,27.70
2023-02-08T06:37:16.941Z,26.60
2023-02-08T06:38:16.928Z,26.70
2023-02-08T06:39:16.918Z,24.50
2023-02-08T06:40:16.906Z,24.70
2023-02-08T06:41:16.895Z,24.40
2023-02-08T06:42:16.884Z,25.30
2023-02-08T06:43:16.875Z,25.80
2023-02-08T06:44:16.865Z,24.00
2023-02-08T06:45:16.855Z,26.90
2023-02-08T06:46:16.845Z,25.70
2023-02-08T06:47:16.831Z,24.90
2023-02-08T06:48:16.823Z,25.70
2023-02-08T06:49:16.811Z,26.30
2023-02-08T06:50:16.800Z,26.40
2023-02-08T06:51:16.795Z,28.10
2023-02-08T06:52:16.882Z,26.20
2023-02-08T06:53:16.771Z,27.00
2023-02-08T06:54:16.758Z,27.40
2023-02-08T06:55:16.759Z,26.30
2023-02-08T06:56:16.733Z,28.50
2023-02-08T06:57:16.729Z,28.20
2023-02-08T06:58:16.713Z,28.00
2023-02-08T06:59:16.706Z,25.90
2023-02-08T07:00:16.719Z,25.90
2023-02-08T07:01:16.693Z,25.90
2023-02-08T07:02:16.725Z,27.80
2023-02-08T07:03:16.671Z,27.00
2023-02-08T07:04:16.657Z,26.50
2023-02-08T07:05:16.648Z,27.00
2023-02-08T07:06:16.629Z,28.80
2023-02-08T07:07:16.622Z,27.60
2023-02-08T07:08:16.634Z,27.30
2023-02-08T07:09:16.601Z,27.60
2023-02-08T07:10:16.614Z,26.70
2023-02-08T07:11:16.577Z,27.10
2023-02-08T07:12:16.569Z,28.40
2023-02-08T07:13:16.556Z,28.70
2023-02-08T07:14:16.545Z,27.50
2023-02-08T07:15:16.539Z,28.00
2023-02-08T07:16:16.572Z,27.00
2023-02-08T07:17:16.515Z,27.40
2023-02-08T07:18:16.504Z,28.00
2023-02-08T07:19:16.504Z,27.40
2023-02-08T07:20:16.605Z,26.30
2023-02-08T07:21:16.478Z,26.80
2023-02-08T07:22:16.458Z,26.20
2023-02-08T07:23:16.466Z,26.80
2023-02-08T07:24:16.465Z,28.00
2023-02-08T07:25:16.432Z,26.10
2023-02-08T07:26:16.419Z,27.80
2023-02-08T07:27:16.408Z,28.40
2023-02-08T07:28:16.468Z,28.90
2023-02-08T07:29:16.387Z,29.70
2023-02-08T07:30:16.374Z,30.00
2023-02-08T07:31:16.382Z,29.40
2023-02-08T07:32:16.505Z,29.90
2023-02-08T07:33:16.346Z,31.40
2023-02-08T07:34:16.335Z,29.90
2023-02-08T07:35:16.326Z,29.80
2023-02-08T07:36:16.312Z,31.20
2023-02-08T07:37:16.313Z,32.30
2023-02-08T07:38:16.296Z,29.10
2023-02-08T07:39:16.306Z,29.30
2023-02-08T07:40:16.294Z,29.60
2023-02-08T07:41:16.271Z,29.90
2023-02-08T07:42:16.261Z,28.80
2023-02-08T07:43:16.244Z,29.80
2023-02-08T07:45:16.221Z,30.40
2023-02-08T07:46:16.240Z,30.50
2023-02-08T07:47:16.203Z,30.20
2023-02-08T07:48:16.193Z,30.80
2023-02-08T07:49:16.187Z,29.20
2023-02-08T07:50:16.168Z,31.60
2023-02-08T07:51:16.166Z,31.40
2023-02-08T07:52:16.245Z,32.10
2023-02-08T07:53:16.136Z,32.30
2023-02-08T07:54:16.127Z,32.80
2023-02-08T07:55:16.115Z,33.30
2023-02-08T07:56:16.137Z,32.90
2023-02-08T07:57:16.093Z,33.70
2023-02-08T07:58:16.093Z,33.60
2023-02-08T07:59:16.082Z,32.00
2023-02-08T08:00:16.061Z,32.80
2023-02-08T08:01:22.219Z,31.70
2023-02-08T08:02:16.052Z,33.10
2023-02-08T08:03:16.050Z,32.50
2023-02-08T08:04:16.216Z,32.50
2023-02-08T08:05:16.007Z,31.50
2023-02-08T08:06:16.000Z,32.80
2023-02-08T08:07:15.990Z,33.00
2023-02-08T08:08:15.990Z,33.50
2023-02-08T08:09:15.980Z,34.80
2023-02-08T08:10:15.955Z,33.60
2023-02-08T08:11:15.956Z,34.10
2023-02-08T08:12:15.961Z,33.10
2023-02-08T08:13:15.921Z,33.60
2023-02-08T08:14:15.912Z,34.00
2023-02-08T08:15:15.900Z,33.90
2023-02-08T08:16:15.991Z,34.60
2023-02-08T08:17:15.888Z,35.20
2023-02-08T08:18:15.883Z,34.60
2023-02-08T08:19:15.856Z,35.20
2023-02-08T08:20:15.859Z,35.20
2023-02-08T08:21:15.836Z,34.40
2023-02-08T08:22:15.828Z,35.80
2023-02-08T08:23:15.819Z,35.70
2023-02-08T08:24:15.829Z,36.20
2023-02-08T08:25:15.798Z,35.50
2023-02-08T08:26:15.795Z,33.50
2023-02-08T08:27:15.773Z,34.90
2023-02-08T08:28:16.009Z,34.70
2023-02-08T08:29:15.780Z,35.40
2023-02-08T08:30:15.748Z,36.00
2023-02-08T08:31:15.947Z,37.90
2023-02-08T08:32:15.726Z,36.10
2023-02-08T08:33:15.713Z,34.60
2023-02-08T08:34:15.703Z,35.10
2023-02-08T08:35:15.692Z,34.70
2023-02-08T08:36:15.682Z,34.90
2023-02-08T08:37:15.667Z,35.30
2023-02-08T08:38:15.664Z,36.30
2023-02-08T08:39:15.655Z,33.10
2023-02-08T08:40:15.642Z,34.90
2023-02-08T08:41:15.635Z,35.00
2023-02-08T08:42:15.613Z,35.60
2023-02-08T08:43:15.603Z,36.10
2023-02-08T08:44:15.614Z,36.30
2023-02-08T08:45:15.586Z,36.20
2023-02-08T08:46:15.621Z,36.90
2023-02-08T08:47:15.558Z,36.60
2023-02-08T08:48:15.558Z,36.80
2023-02-08T08:49:15.534Z,36.90
2023-02-08T08:50:15.532Z,38.10
2023-02-08T08:51:15.521Z,36.80
2023-02-08T08:52:15.520Z,37.20
2023-02-08T08:53:15.491Z,38.30
2023-02-08T08:54:15.482Z,38.30
2023-02-08T08:55:15.469Z,35.30
2023-02-08T08:56:15.472Z,36.70
2023-02-08T08:57:15.449Z,36.0
2023-02-08T08:58:15.442Z,36.1
2023-02-08T08:59:15.427Z,36.9
2023-02-08T09:00:15.442Z,34.70
2023-02-08T09:01:15.617Z,36.30
2023-02-08T09:02:15.394Z,36.10
2023-02-08T09:03:15.495Z,36.90
2023-02-08T09:04:15.379Z,35.30
2023-02-08T09:05:15.362Z,37.30
2023-02-08T09:06:15.348Z,36.10
2023-02-08T09:07:15.346Z,36.20
2023-02-08T09:08:15.331Z,36.20
2023-02-08T09:09:15.312Z,36.30
2023-02-08T09:10:15.304Z,36.10
2023-02-08T09:11:15.296Z,37.20
2023-02-08T09:12:15.282Z,36.30
2023-02-08T09:13:15.271Z,38.10
2023-02-08T09:14:15.259Z,37.10
2023-02-08T09:15:15.249Z,36.40
2023-02-08T09:16:15.331Z,36.10
2023-02-08T09:17:15.422Z,35.50
2023-02-08T09:18:15.227Z,35.60
2023-02-08T09:19:15.233Z,37.10
2023-02-08T09:20:15.194Z,37.00
2023-02-08T09:21:15.184Z,36.40
2023-02-08T09:22:15.168Z,36.60
2023-02-08T09:23:15.161Z,36.40
2023-02-08T09:24:15.152Z,37.50
2023-02-08T09:25:15.156Z,37.30
2023-02-08T09:26:15.128Z,35.80
2023-02-08T09:27:15.115Z,36.70
2023-02-08T09:28:15.139Z,37.40
2023-02-08T09:29:15.090Z,37.60
2023-02-08T09:30:15.086Z,35.70
2023-02-08T09:31:15.111Z,36.20
2023-02-08T09:32:15.108Z,35.70
2023-02-08T09:33:15.046Z,36.40
2023-02-08T09:34:15.040Z,35.10
2023-02-08T09:35:15.033Z,36.10
2023-02-08T09:36:15.018Z,35.90
2023-02-08T09:37:15.004Z,35.60
2023-02-08T09:38:14.996Z,34.10
2023-02-08T09:39:14.987Z,34.80
2023-02-08T09:40:14.976Z,35.60
2023-02-08T09:41:14.965Z,33.50
2023-02-08T09:42:14.958Z,34.00
2023-02-08T09:43:14.943Z,34.50
2023-02-08T09:44:14.934Z,35.30
2023-02-08T09:45:14.921Z,35.50
2023-02-08T09:46:14.948Z,35.30
2023-02-08T09:47:14.917Z,34.20
2023-02-08T09:48:14.914Z,34.00
2023-02-08T09:49:14.885Z,34.70
2023-02-08T09:50:14.872Z,34.50
2023-02-08T09:51:14.858Z,33.50
2023-02-08T09:52:14.852Z,33.10
2023-02-08T09:53:14.831Z,32.90
2023-02-08T09:54:14.824Z,33.70
2023-02-08T09:55:14.820Z,33.50
2023-02-08T09:56:14.806Z,32.70
2023-02-08T09:57:14.796Z,31.80
2023-02-08T09:58:14.777Z,31.80
2023-02-08T09:59:14.768Z,31.00
2023-02-08T10:00:14.758Z,31.80
2023-02-08T10:01:14.772Z,31.00
2023-02-08T10:02:14.747Z,31.10
2023-02-08T10:03:14.742Z,31.10
2023-02-08T10:04:14.738Z,31.40
2023-02-08T10:05:14.705Z,29.20
2023-02-08T10:06:14.698Z,31.00
2023-02-08T10:07:14.678Z,29.80
2023-02-08T10:08:14.670Z,29.00
2023-02-08T10:09:14.664Z,29.20
2023-02-08T10:10:14.660Z,29.30
2023-02-08T10:11:14.637Z,27.50
2023-02-08T10:12:14.627Z,30.40
2023-02-08T10:13:14.612Z,28.50
2023-02-08T10:14:14.604Z,29.50
2023-02-08T10:15:14.591Z,28.10
2023-02-08T10:16:14.619Z,27.90
2023-02-08T10:17:14.570Z,27.90
2023-02-08T10:18:14.647Z,28.30
2023-02-08T10:19:14.549Z,27.40
2023-02-08T10:20:14.572Z,28.20
2023-02-08T10:21:14.543Z,27.20
2023-02-08T10:22:14.521Z,26.30
2023-02-08T10:23:15.276Z,26.20
2023-02-08T10:24:14.494Z,25.60
2023-02-08T10:25:14.488Z,25.60
2023-02-08T10:26:14.478Z,26.90
2023-02-08T10:27:14.459Z,26.50
2023-02-08T10:28:14.518Z,25.30
2023-02-08T10:29:14.498Z,26.40
2023-02-08T10:30:14.427Z,25.80
2023-02-08T10:31:14.651Z,24.50
2023-02-08T10:32:14.449Z,25.90
2023-02-08T10:33:14.394Z,26.50
2023-02-08T10:34:14.381Z,25.30
2023-02-08T10:35:14.368Z,25.40
2023-02-08T10:36:14.384Z,26.30
2023-02-08T10:37:14.346Z,25.70
2023-02-08T10:38:14.338Z,25.30
2023-02-08T10:39:14.325Z,26.80
2023-02-08T10:40:14.319Z,26.30
2023-02-08T10:41:14.305Z,25.20
2023-02-08T10:42:14.293Z,24.30
2023-02-08T10:43:14.281Z,25.50
2023-02-08T10:44:14.301Z,24.90
2023-02-08T10:45:23.992Z,25.40
2023-02-08T10:46:15.356Z,26.50
2023-02-08T10:47:14.237Z,25.40
2023-02-08T10:48:14.225Z,26.00
2023-02-08T10:49:14.212Z,25.30
2023-02-08T10:50:14.202Z,24.10
2023-02-08T10:51:14.190Z,24.30
2023-02-08T10:52:14.379Z,24.20
2023-02-08T10:53:14.167Z,23.60
2023-02-08T10:54:14.159Z,23.30
2023-02-08T10:55:14.212Z,21.60
2023-02-08T10:56:14.165Z,22.10
2023-02-08T10:57:14.121Z,22.30
2023-02-08T10:58:14.131Z,22.50
2023-02-08T10:59:14.102Z,20.90
2023-02-08T11:00:14.090Z,21.20
2023-02-08T11:01:14.106Z,19.80
2023-02-08T11:02:14.068Z,21.40
2023-02-08T11:03:14.059Z,20.80
2023-02-08T11:04:14.105Z,21.50
2023-02-08T11:05:14.048Z,21.20
2023-02-08T11:06:14.052Z,21.50
2023-02-08T11:07:14.012Z,19.60
2023-02-08T11:08:14.065Z,20.00
2023-02-08T11:09:13.998Z,18.30
2023-02-08T11:10:13.976Z,18.10
2023-02-08T11:11:13.966Z,17.90
2023-02-08T11:12:13.957Z,17.20
2023-02-08T11:13:13.952Z,18.20
2023-02-08T11:14:13.942Z,18.90
2023-02-08T11:15:13.924Z,17.90
2023-02-08T11:16:13.968Z,17.80
2023-02-08T11:17:13.908Z,17.50
2023-02-08T11:18:13.910Z,15.90
2023-02-08T11:19:13.889Z,15.80
2023-02-08T11:20:13.870Z,14.40
2023-02-08T11:21:13.856Z,14.90
2023-02-08T11:22:13.848Z,15.00
2023-02-08T11:23:13.836Z,14.00
2023-02-08T11:24:13.858Z,15.50
2023-02-08T11:25:13.830Z,14.70
2023-02-08T11:26:13.806Z,14.40
2023-02-08T11:27:13.804Z,13.20
2023-02-08T11:28:13.871Z,14.30
2023-02-08T11:29:13.775Z,14.20
2023-02-08T11:30:13.790Z,14.20
2023-02-08T11:31:14.150Z,15.00
2023-02-08T11:32:13.741Z,15.20
2023-02-08T11:33:13.729Z,14.30
2023-02-08T11:34:13.728Z,14.10
2023-02-08T11:35:13.708Z,14.20
2023-02-08T11:36:13.702Z,15.70
2023-02-08T11:37:13.696Z,13.60
2023-02-08T11:38:13.677Z,12.00
2023-02-08T11:39:13.673Z,11.90
2023-02-08T11:40:13.683Z,12.10
2023-02-08T11:41:13.658Z,11.50
2023-02-08T11:42:13.633Z,11.40
2023-02-08T11:43:13.621Z,11.60
2023-02-08T11:44:13.612Z,12.20
2023-02-08T11:45:13.598Z,12.70
2023-02-08T11:46:13.770Z,12.00
2023-02-08T11:47:13.575Z,13.00
2023-02-08T11:48:13.570Z,12.70
2023-02-08T11:49:13.550Z,15.10
2023-02-08T11:50:13.548Z,12.60
2023-02-08T11:51:13.533Z,12.20
2023-02-08T11:52:13.520Z,11.70
2023-02-08T11:53:13.507Z,11.90
2023-02-08T11:54:13.505Z,12.50
2023-02-08T11:55:13.497Z,12.30
2023-02-08T11:56:13.499Z,11.60
2023-02-08T11:57:13.465Z,11.40
2023-02-08T11:58:13.469Z,11.40
2023-02-08T11:59:13.444Z,10.80
2023-02-08T12:00:13.434Z,11.50
2023-02-08T12:01:13.420Z,10.20
2023-02-08T12:02:13.424Z,9.70
2023-02-08T12:03:13.408Z,10.00
2023-02-08T12:04:13.384Z,10.40
2023-02-08T12:05:13.376Z,10.40
2023-02-08T12:06:13.363Z,10.50
2023-02-08T12:07:13.357Z,9.90
2023-02-08T12:08:13.349Z,10.00
2023-02-08T12:09:13.331Z,10.40
2023-02-08T12:10:13.322Z,9.70
2023-02-08T12:11:13.309Z,10.20
2023-02-08T12:12:13.419Z,9.80
2023-02-08T12:13:13.288Z,10.10
2023-02-08T12:14:13.389Z,9.60
2023-02-08T12:15:13.278Z,9.90
2023-02-08T12:16:13.340Z,9.90
2023-02-08T12:17:13.242Z,10.40
2023-02-08T12:18:13.231Z,17.10
2023-02-08T12:19:13.254Z,10.60
2023-02-08T12:20:13.216Z,11.20
2023-02-08T12:21:13.198Z,10.30
2023-02-08T12:22:13.185Z,10.50
2023-02-08T12:23:13.181Z,10.20
2023-02-08T12:24:13.163Z,10.50
2023-02-08T12:25:13.155Z,10.40
2023-02-08T12:26:13.143Z,11.10
2023-02-08T12:27:14.616Z,9.80
2023-02-08T12:28:13.173Z,10.20
2023-02-08T12:29:13.109Z,11.50
2023-02-08T12:30:13.187Z,10.70
2023-02-08T12:31:13.275Z,10.30
2023-02-08T12:32:13.078Z,10.40
2023-02-08T12:33:14.548Z,11.20
2023-02-08T12:34:13.088Z,10.60
2023-02-08T12:35:13.039Z,11.20
2023-02-08T12:36:13.023Z,10.70
2023-02-08T12:37:13.060Z,11.60
2023-02-08T12:38:13.007Z,11.50
2023-02-08T12:39:19.708Z,11.80
2023-02-08T12:40:14.017Z,10.70
2023-02-08T12:41:12.973Z,11.40
2023-02-08T12:42:12.969Z,11.90
2023-02-08T12:43:12.952Z,11.60
2023-02-08T12:44:12.963Z,10.80
2023-02-08T12:45:12.942Z,10.90
2023-02-08T12:46:12.960Z,10.30
2023-02-08T12:47:12.905Z,11.00
2023-02-08T12:48:12.900Z,10.60
2023-02-08T12:49:12.881Z,10.90
2023-02-08T12:50:13.010Z,10.80
2023-02-08T12:51:12.874Z,11.30
2023-02-08T12:52:12.876Z,10.00
2023-02-08T12:53:12.934Z,10.50
2023-02-08T12:54:12.976Z,9.70